Norfolk, VA (23523)

6:06 PM EDT on May 27, 2017 (GMT -0400)
Plymouth Park | | Change Station
Active Advisory: Severe Thunderstorm Watch

Elev 6 ft 36.82 °N, 76.25 °W | Updated 17 seconds ago

Clear
Clear
87.3 °F
Feels Like 89 °F
N
0.0
Wind Variable Wind from SSE

Today
High -- | Low -- °F
--% Chance of Precip.
Yesterday
High -- | Low -- °F
Precip. -- in
Pressure 29.85 in
Visibility 10.0 miles
Clouds Clear
Heat Index 89 °F
Dew Point 64 °F
Humidity 46%
Rainfall 0.00 in
Snow Depth Not available.
5:49 AM 8:15 PM
Waxing Crescent, 7% visible
METAR KORF 271951Z 07008KT 10SM CLR 29/18 A2984 RMK AO2 SLP106 T02890178
Pressure 29.85 in
Visibility 10.0 miles
Clouds Clear
Heat Index 89 °F
Dew Point 64 °F
Humidity 46%
Rainfall 0.00 in
Snow Depth Not available.
5:49 AM 8:15 PM
Waxing Crescent, 7% visible
METAR KORF 271951Z 07008KT 10SM CLR 29/18 A2984 RMK AO2 SLP106 T02890178

Get Your Daily Forecast Email!

Thanks for signing up!

Be on the lookout for a verification email in your inbox.

You'll start receiving severe weather alerts in your inbox..

×

10-Day Weather Forecast

Almanac

Astronomy

May. 27, 2017 Rise Set
Actual Time
Civil Twilight
Nautical Twilight
Astronomical Twilight
Moon
Length of Visible Light
Length of Day
Tomorrow will be .
, % of the Moon is Illuminated

Today's Extremes

State Highs State Lows

Community

WunderPhotos

Category 6

Welcome to Category 6. This is the collective home for Weather Underground's featured writeups by Dr. Jeff Masters (right), Bob Henson (left), Chris Burt, and other regular contributors.

Nearby

Air Quality

  Air Quality AQ Index Pollutant
Not available.

Snow Depth

Station Depth Elevation

Earthquake Activity

City Distance Mag. Time & Date
Minimum magnitude displayed is 2.5.

Coastal Water Temperatures

Place Temperature

Stations

Nearby Weather Stations

Station Location Temp. Windchill Dew Point Humidity Wind Precip. Elev Updated Type
                   

Watches & Warnings

Severe Thunderstorm Watch
Issued: 6:03 PM EDT May. 27, 2017 – National Weather Service

Severe Thunderstorm Watch 278 remains in effect until 1000 PM EDT

VA
. Virginia counties included are

Albemarle Amelia Amherst
Appomattox Augusta Brunswick
Buckingham Campbell Caroline
Charles City Charlotte Chesterfield
Cumberland Dinwiddie Essex
Fluvanna Gloucester Goochland
Greene Greensville Halifax
Hanover Henrico Isle of Wight
James City King And Queen King William
Louisa Lunenburg Madison
Mathews Mecklenburg Middlesex
Nelson New Kent Nottoway
Orange Powhatan Prince Edward
Prince George Southampton Spotsylvania
Surry Sussex York




Virginia independent cities included are

Charlottesville Chesapeake Colonial Heights
Emporia Franklin Fredericksburg
Hampton Hopewell Lynchburg
Newport News Norfolk Petersburg
Poquoson Portsmouth Richmond
Staunton Suffolk Virginia Beach
Waynesboro Williamsburg